This is the latest recevied weather packets stored in our database for station/object LRTR. If no packets are shown the sender has not sent any weather packets the latest 10 day(s).
| Time | Temp. | Humidity | Pressure | Rain* | Wind** | Luminosity | Snow |
|---|---|---|---|---|---|---|---|
| 1777036685 | 18.89° C | 37% | 1014 hPa | - | - | - | - |
| 1777035785 | 18.89° C | 37% | 1014 hPa | - | - | - | - |
| 1777034885 | 17.78° C | 37% | 1014 hPa | - | - | - | - |
| 1777033985 | 17.78° C | 37% | 1014 hPa | - | - | - | - |
| 1777033085 | 17.78° C | 37% | 1015 hPa | - | - | - | - |
| 1777032185 | 17.78° C | 37% | 1015 hPa | - | - | - | - |
| 1777031312 | 17.78° C | 34% | 1015 hPa | - | - | - | - |
| 1777030385 | 17.78° C | 34% | 1015 hPa | - | - | - | - |
| 1777029486 | 17.78° C | 34% | 1015 hPa | - | - | - | - |
| 1777028585 | 17.78° C | 34% | 1015 hPa | - | - | - | - |
| 1777027685 | 17.22° C | 37% | 1015 hPa | - | - | - | - |
| 1777026786 | 17.22° C | 37% | 1015 hPa | - | - | - | - |
| 1777025885 | 17.78° C | 37% | 1015 hPa | - | - | - | - |
| 1777024986 | 17.78° C | 37% | 1015 hPa | - | - | - | - |
| 1777024085 | 17.22° C | 39% | 1015 hPa | - | - | - | - |
| 1777023185 | 17.22° C | 39% | 1015 hPa | - | - | - | - |
| 1777022285 | 17.22° C | 37% | 1015 hPa | - | - | - | - |
| 1777021385 | 17.22° C | 37% | 1015 hPa | - | - | - | - |
| 1777020489 | 16.11° C | 42% | 1015 hPa | - | - | - | - |
| 1777019585 | 16.11° C | 42% | 1015 hPa | - | - | - | - |
| 1777018685 | 15° C | 55% | 1015 hPa | - | - | - | - |
| 1777017785 | 15° C | 55% | 1015 hPa | - | - | - | - |
| 1777016885 | 12.78° C | 59% | 1015 hPa | - | - | - | - |
| 1777015985 | 12.78° C | 59% | 1015 hPa | - | - | - | - |
| 1777015099 | 11.11° C | 62% | 1015 hPa | - | - | - | - |
* Rain since midnight (hover to see other rain measurements)
** Current wind speed in m/s (hover to see current wind gust speed)